createdAt,value
2023-01-31T00:01:40.951Z,32.20
2023-01-31T00:04:47.691Z,33.85
2023-01-31T00:07:55.226Z,34.90
2023-01-31T00:10:59.852Z,31.20
2023-01-31T00:14:07.483Z,31.12
2023-01-31T00:17:14.352Z,33.08
2023-01-31T00:20:20.953Z,35.38
2023-01-31T00:23:26.571Z,36.90
2023-01-31T00:26:38.354Z,34.73
2023-01-31T00:29:44.309Z,33.20
2023-01-31T00:32:49.781Z,39.42
2023-01-31T00:35:56.405Z,60.58
2023-01-31T00:39:07.760Z,44.42
2023-01-31T00:42:01.903Z,39.23
2023-01-31T00:45:01.520Z,39.75
2023-01-31T00:48:06.362Z,42.23
2023-01-31T00:51:12.593Z,41.70
2023-01-31T00:54:17.692Z,47.17
2023-01-31T00:57:22.637Z,41.42
2023-01-31T01:00:29.339Z,38.35
2023-01-31T01:03:35.318Z,41.77
2023-01-31T01:06:41.060Z,40.00
2023-01-31T01:09:47.707Z,43.68
2023-01-31T01:12:54.446Z,43.68
2023-01-31T01:16:01.135Z,41.23
2023-01-31T01:19:07.855Z,39.75
2023-01-31T01:22:13.164Z,44.73
2023-01-31T01:25:18.767Z,41.42
2023-01-31T01:28:25.746Z,40.55
2023-01-31T01:31:39.718Z,36.28
2023-01-31T01:34:45.940Z,37.30
2023-01-31T01:37:51.678Z,40.10
2023-01-31T01:40:57.560Z,39.67
2023-01-31T01:44:06.590Z,36.58
2023-01-31T01:47:12.608Z,32.13
2023-01-31T01:50:48.786Z,35.52
2023-01-31T01:53:55.701Z,29.40
2023-01-31T01:57:04.154Z,98.52
2023-01-31T02:00:23.654Z,85.28
2023-01-31T02:03:22.825Z,42.13
2023-01-31T02:06:18.665Z,37.05
2023-01-31T02:09:28.793Z,27.13
2023-01-31T02:12:36.826Z,28.02
2023-01-31T02:15:44.928Z,23.50
2023-01-31T02:18:50.919Z,26.62
2023-01-31T02:22:38.547Z,26.97
2023-01-31T02:26:13.619Z,24.27
2023-01-31T02:29:17.706Z,24.72
2023-01-31T02:33:04.862Z,24.45
2023-01-31T02:36:41.928Z,26.85
2023-01-31T02:40:09.807Z,29.30
2023-01-31T02:43:24.963Z,26.90
2023-01-31T02:46:32.473Z,29.75
2023-01-31T02:50:01.004Z,28.85
2023-01-31T02:53:25.979Z,27.98
2023-01-31T02:56:34.796Z,33.67
2023-01-31T02:59:42.429Z,32.65
2023-01-31T03:02:49.599Z,28.92
2023-01-31T03:05:55.445Z,29.45
2023-01-31T03:09:01.753Z,31.77
2023-01-31T03:12:38.447Z,33.60
2023-01-31T03:16:15.012Z,31.45
2023-01-31T03:19:37.558Z,30.10
2023-01-31T03:22:51.263Z,37.40
2023-01-31T03:25:57.801Z,30.17
2023-01-31T03:29:05.126Z,36.17
2023-01-31T03:32:20.028Z,31.68
2023-01-31T03:35:27.061Z,41.98
2023-01-31T03:38:41.774Z,43.68
2023-01-31T03:42:13.903Z,35.78
2023-01-31T03:45:25.243Z,26.20
2023-01-31T03:48:32.526Z,28.42
2023-01-31T03:51:42.168Z,24.30
2023-01-31T03:55:09.048Z,22.77
2023-01-31T03:58:15.565Z,24.80
2023-01-31T04:01:22.163Z,23.75
2023-01-31T04:04:46.277Z,28.70
2023-01-31T04:07:52.280Z,26.82
2023-01-31T04:11:00.019Z,21.48
2023-01-31T04:14:08.006Z,28.87
2023-01-31T04:17:13.402Z,26.55
2023-01-31T04:20:21.408Z,26.85
2023-01-31T04:23:26.955Z,33.18
2023-01-31T04:26:33.610Z,29.35
2023-01-31T04:29:38.734Z,36.38
2023-01-31T04:32:45.395Z,27.07
2023-01-31T04:35:56.115Z,30.72
2023-01-31T04:39:01.831Z,28.00
2023-01-31T04:42:08.284Z,27.80
2023-01-31T04:45:14.024Z,32.38
2023-01-31T04:48:20.812Z,32.70
2023-01-31T04:51:27.598Z,32.60
2023-01-31T04:54:34.476Z,31.35
2023-01-31T04:57:39.748Z,29.20
2023-01-31T05:00:45.637Z,27.35
2023-01-31T05:03:51.166Z,22.58
2023-01-31T05:06:58.086Z,22.58
2023-01-31T05:10:03.586Z,27.30
2023-01-31T05:13:10.049Z,23.67
2023-01-31T05:16:17.769Z,24.65
2023-01-31T05:19:23.652Z,28.35
2023-01-31T05:22:29.364Z,25.60
2023-01-31T05:25:34.754Z,25.43
2023-01-31T05:28:36.128Z,27.65
2023-01-31T05:31:29.311Z,22.32
2023-01-31T05:34:35.179Z,28.87
2023-01-31T05:37:40.827Z,26.70
2023-01-31T05:40:47.623Z,29.32
2023-01-31T05:43:52.967Z,24.52
2023-01-31T05:46:52.863Z,28.47
2023-01-31T05:50:01.368Z,28.52
2023-01-31T05:53:11.293Z,27.37
2023-01-31T05:56:17.928Z,25.70
2023-01-31T05:59:33.809Z,26.75
2023-01-31T06:02:26.571Z,22.60
2023-01-31T06:05:33.507Z,27.22
2023-01-31T06:08:39.719Z,29.80
2023-01-31T06:11:45.853Z,31.02
2023-01-31T06:14:52.578Z,27.40
2023-01-31T06:17:51.035Z,30.70
2023-01-31T06:20:58.829Z,24.87
2023-01-31T06:24:04.802Z,29.10
2023-01-31T06:27:09.940Z,29.27
2023-01-31T06:30:19.241Z,30.97
2023-01-31T06:33:31.443Z,30.70
2023-01-31T06:36:32.155Z,29.02
2023-01-31T06:39:39.946Z,28.83
2023-01-31T06:42:45.343Z,27.65
2023-01-31T06:45:51.295Z,30.15
2023-01-31T06:48:59.080Z,34.55
2023-01-31T06:52:06.391Z,34.15
2023-01-31T06:55:12.379Z,31.37
2023-01-31T06:58:20.739Z,33.30
2023-01-31T07:01:30.257Z,31.02
2023-01-31T07:04:36.353Z,28.80
2023-01-31T07:07:42.918Z,29.48
2023-01-31T07:10:48.483Z,29.02
2023-01-31T07:13:55.053Z,28.52
2023-01-31T07:17:01.511Z,26.73
2023-01-31T07:20:08.896Z,30.72
2023-01-31T07:23:14.359Z,28.77
2023-01-31T07:26:20.205Z,30.75
2023-01-31T07:29:25.533Z,31.42
2023-01-31T07:32:31.299Z,28.52
2023-01-31T07:35:37.155Z,26.65
2023-01-31T07:38:37.031Z,30.82
2023-01-31T07:41:37.013Z,28.23
2023-01-31T07:44:45.770Z,29.55
2023-01-31T07:47:51.529Z,30.35
2023-01-31T07:50:59.701Z,31.33
2023-01-31T07:54:08.011Z,30.35
2023-01-31T07:57:13.484Z,30.60
2023-01-31T08:00:21.791Z,29.80
2023-01-31T08:03:43.429Z,30.25
2023-01-31T08:06:49.317Z,31.30
2023-01-31T08:09:56.161Z,31.05
2023-01-31T08:13:01.917Z,29.87
2023-01-31T08:16:07.998Z,30.52
2023-01-31T08:19:14.664Z,29.52
2023-01-31T08:22:19.840Z,27.60
2023-01-31T08:25:25.210Z,27.45
2023-01-31T08:28:30.848Z,25.30
2023-01-31T08:31:37.855Z,25.57
2023-01-31T08:34:37.759Z,27.50
2023-01-31T08:37:44.632Z,24.95
2023-01-31T08:40:49.969Z,25.68
2023-01-31T08:43:58.460Z,29.05
2023-01-31T08:47:03.123Z,31.50
2023-01-31T08:50:25.741Z,24.57
2023-01-31T08:53:18.439Z,26.95
2023-01-31T08:56:26.337Z,26.93
2023-01-31T08:59:32.559Z,25.68
2023-01-31T09:02:37.441Z,26.45
2023-01-31T09:05:43.973Z,29.45
2023-01-31T09:08:49.499Z,30.37
2023-01-31T09:11:55.149Z,26.85
2023-01-31T09:15:01.797Z,25.97
2023-01-31T09:18:06.815Z,28.23
2023-01-31T09:21:13.589Z,30.77
2023-01-31T09:24:19.750Z,27.50
2023-01-31T09:27:25.786Z,28.23
2023-01-31T09:30:32.161Z,26.27
2023-01-31T09:33:39.687Z,23.12
2023-01-31T09:36:44.914Z,21.80
2023-01-31T09:39:49.738Z,24.67
2023-01-31T09:43:17.582Z,24.85
2023-01-31T09:46:32.038Z,24.82
2023-01-31T09:49:41.550Z,23.10
2023-01-31T09:52:47.210Z,26.70
2023-01-31T09:56:00.540Z,25.62
2023-01-31T09:59:32.291Z,24.30
2023-01-31T10:03:08.181Z,22.87
2023-01-31T10:06:26.655Z,22.55
2023-01-31T10:09:51.097Z,22.25
2023-01-31T10:13:06.125Z,19.80
2023-01-31T10:16:37.302Z,21.50
2023-01-31T10:20:05.195Z,23.27
2023-01-31T10:23:24.295Z,23.73
2023-01-31T10:26:43.089Z,28.75
2023-01-31T10:29:55.581Z,25.65
2023-01-31T10:33:02.779Z,23.07
2023-01-31T10:36:07.849Z,24.07
2023-01-31T10:39:28.914Z,25.60
2023-01-31T10:42:51.812Z,26.37
2023-01-31T10:45:58.291Z,21.42
2023-01-31T10:48:57.399Z,23.55
2023-01-31T10:52:04.763Z,23.83
2023-01-31T10:55:22.736Z,21.52
2023-01-31T10:58:31.876Z,22.98
2023-01-31T11:01:37.492Z,21.48
2023-01-31T11:04:47.748Z,21.05
2023-01-31T11:07:53.812Z,22.05
2023-01-31T11:11:09.674Z,23.45
2023-01-31T11:14:20.012Z,20.10
2023-01-31T11:17:38.390Z,25.90
2023-01-31T11:20:50.169Z,19.98
2023-01-31T11:23:58.047Z,19.05
2023-01-31T11:27:12.503Z,21.17
2023-01-31T11:30:20.516Z,21.07
2023-01-31T11:33:37.033Z,22.75
2023-01-31T11:39:42.356Z,23.95
2023-01-31T11:42:34.611Z,23.05
2023-01-31T11:45:44.448Z,30.10
2023-01-31T11:48:58.029Z,21.93
2023-01-31T11:52:02.983Z,25.23
2023-01-31T11:55:22.666Z,21.30
2023-01-31T11:58:42.983Z,25.75
2023-01-31T12:01:49.366Z,32.20
2023-01-31T12:04:55.878Z,25.80
2023-01-31T12:08:05.943Z,26.05
2023-01-31T12:11:12.135Z,26.45
2023-01-31T12:14:32.428Z,23.02
2023-01-31T12:17:39.068Z,28.87
2023-01-31T12:21:01.646Z,26.77
2023-01-31T12:24:20.470Z,26.25
2023-01-31T12:27:49.027Z,29.57
2023-01-31T12:31:07.739Z,28.62
2023-01-31T12:34:47.093Z,27.77
2023-01-31T12:37:50.979Z,28.40
2023-01-31T12:41:17.312Z,28.05
2023-01-31T12:44:26.081Z,32.38
2023-01-31T12:48:12.230Z,32.15
2023-01-31T12:51:37.566Z,27.00
2023-01-31T12:55:13.467Z,27.58
2023-01-31T12:58:46.159Z,28.60
2023-01-31T13:02:04.919Z,26.00
2023-01-31T13:05:37.313Z,29.50
2023-01-31T13:08:57.042Z,30.55
2023-01-31T13:11:58.443Z,27.07
2023-01-31T13:15:21.148Z,28.17
2023-01-31T13:18:27.194Z,27.67
2023-01-31T13:21:39.657Z,26.77
2023-01-31T13:24:51.574Z,24.27
2023-01-31T13:28:00.222Z,27.65
2023-01-31T13:31:14.003Z,24.98
2023-01-31T13:34:36.442Z,25.80
2023-01-31T13:37:42.289Z,26.42
2023-01-31T13:41:07.222Z,23.73
2023-01-31T13:44:13.969Z,27.50
2023-01-31T13:47:29.720Z,27.35
2023-01-31T13:50:56.068Z,28.77
2023-01-31T13:54:09.877Z,27.77
2023-01-31T13:57:16.596Z,30.08
2023-01-31T14:00:42.881Z,29.48
2023-01-31T14:04:08.647Z,29.57
2023-01-31T14:07:28.772Z,24.77
2023-01-31T14:13:50.001Z,26.33
2023-01-31T14:16:53.358Z,23.35
2023-01-31T14:20:04.985Z,29.50
2023-01-31T14:23:58.242Z,28.83
2023-01-31T14:27:08.140Z,32.17
2023-01-31T14:30:26.540Z,29.57
2023-01-31T14:33:34.676Z,25.95
2023-01-31T14:36:45.704Z,27.85
2023-01-31T14:40:11.503Z,24.70
2023-01-31T14:43:41.446Z,28.50
2023-01-31T14:47:36.862Z,25.95
2023-01-31T14:50:55.065Z,26.85
2023-01-31T14:54:20.469Z,27.80
2023-01-31T14:57:35.920Z,28.05
2023-01-31T15:00:45.967Z,27.00
2023-01-31T15:04:03.492Z,28.45
2023-01-31T15:07:12.039Z,29.70
2023-01-31T15:10:19.803Z,26.05
2023-01-31T15:14:06.177Z,28.05
2023-01-31T15:17:40.334Z,25.82
2023-01-31T15:20:52.759Z,30.17
2023-01-31T15:23:59.324Z,23.52
2023-01-31T15:27:04.914Z,30.35
2023-01-31T15:30:19.433Z,31.55
2023-01-31T15:33:54.435Z,26.30
2023-01-31T15:37:07.741Z,30.82
2023-01-31T15:40:35.403Z,31.97
2023-01-31T15:43:43.278Z,30.37
2023-01-31T15:46:50.141Z,31.52
2023-01-31T15:49:58.063Z,32.42
2023-01-31T15:53:04.487Z,30.10
2023-01-31T15:56:12.114Z,31.55
2023-01-31T15:59:21.269Z,33.38
2023-01-31T16:02:31.760Z,32.78
2023-01-31T16:05:37.840Z,39.13
2023-01-31T16:08:41.564Z,34.38
2023-01-31T16:11:27.929Z,33.53
2023-01-31T16:14:20.560Z,34.00
2023-01-31T16:17:06.397Z,32.80
2023-01-31T16:19:58.959Z,32.63
2023-01-31T16:22:52.708Z,32.80
2023-01-31T16:25:58.191Z,31.33
2023-01-31T16:29:08.485Z,33.98
2023-01-31T16:32:14.014Z,36.03
2023-01-31T16:35:23.420Z,46.85
2023-01-31T16:42:07.657Z,36.80
2023-01-31T16:45:07.171Z,37.95
2023-01-31T16:48:38.488Z,37.35
2023-01-31T16:51:57.072Z,42.73
2023-01-31T16:55:09.662Z,39.60
2023-01-31T16:58:14.996Z,45.50
2023-01-31T17:01:36.704Z,38.78
2023-01-31T17:04:42.621Z,43.80
2023-01-31T17:07:50.330Z,39.92
2023-01-31T17:10:56.681Z,42.35
2023-01-31T17:14:03.360Z,39.80
2023-01-31T17:17:09.814Z,49.15
2023-01-31T17:20:12.909Z,46.25
2023-01-31T17:23:18.436Z,41.10
2023-01-31T17:26:30.446Z,40.75
2023-01-31T17:29:36.093Z,46.48
2023-01-31T17:32:41.052Z,46.05
2023-01-31T17:35:54.032Z,46.95
2023-01-31T17:39:00.459Z,40.23
2023-01-31T17:42:07.028Z,43.78
2023-01-31T17:45:13.254Z,40.35
2023-01-31T17:48:26.319Z,39.92
2023-01-31T17:51:27.639Z,42.60
2023-01-31T17:54:33.248Z,54.23
2023-01-31T17:57:39.753Z,63.55
2023-01-31T18:00:44.960Z,59.48
2023-01-31T18:03:49.938Z,57.45
2023-01-31T18:06:56.239Z,65.55
2023-01-31T18:10:02.259Z,66.92
2023-01-31T18:13:08.569Z,69.55
2023-01-31T18:16:28.611Z,62.15
2023-01-31T18:19:33.587Z,46.58
2023-01-31T18:22:38.938Z,59.73
2023-01-31T18:25:37.530Z,57.80
2023-01-31T18:28:37.237Z,113.68
2023-01-31T18:31:43.802Z,87.08
2023-01-31T18:34:48.921Z,60.92
2023-01-31T18:37:54.438Z,45.10
2023-01-31T18:41:01.211Z,48.70
2023-01-31T18:44:07.184Z,49.23
2023-01-31T18:47:13.354Z,43.25
2023-01-31T18:50:20.413Z,48.17
2023-01-31T18:53:26.848Z,51.58
2023-01-31T18:56:34.324Z,46.42
2023-01-31T18:59:39.973Z,48.10
2023-01-31T19:02:45.538Z,43.65
2023-01-31T19:05:52.375Z,51.30
2023-01-31T19:09:04.096Z,46.10
2023-01-31T19:12:09.854Z,47.23
2023-01-31T19:15:15.327Z,51.45
2023-01-31T19:18:21.938Z,48.55
2023-01-31T19:21:29.236Z,43.20
2023-01-31T19:24:34.947Z,47.45
2023-01-31T19:27:40.592Z,47.03
2023-01-31T19:30:46.546Z,58.55
2023-01-31T19:33:53.220Z,56.45
2023-01-31T19:36:59.047Z,51.77
2023-01-31T19:40:04.940Z,47.17
2023-01-31T19:43:12.462Z,78.70
2023-01-31T19:46:11.261Z,67.40
2023-01-31T19:49:04.242Z,51.53
2023-01-31T19:52:09.599Z,46.10
2023-01-31T19:55:15.945Z,51.88
2023-01-31T19:58:22.295Z,49.73
2023-01-31T20:01:30.367Z,50.40
2023-01-31T20:04:37.319Z,50.35
2023-01-31T20:07:43.272Z,46.20
2023-01-31T20:10:49.824Z,46.53
2023-01-31T20:13:55.586Z,52.60
2023-01-31T20:17:01.433Z,47.95
2023-01-31T20:20:08.429Z,52.45
2023-01-31T20:23:15.117Z,47.35
2023-01-31T20:26:21.026Z,62.30
2023-01-31T20:29:27.513Z,52.13
2023-01-31T20:32:32.592Z,49.80
2023-01-31T20:35:38.509Z,51.92
2023-01-31T20:38:43.553Z,47.80
2023-01-31T20:41:48.861Z,50.88
2023-01-31T20:44:54.098Z,56.00
2023-01-31T20:48:01.291Z,60.48
2023-01-31T20:51:10.410Z,55.88
2023-01-31T20:54:16.204Z,49.85
2023-01-31T20:57:21.248Z,47.80
2023-01-31T21:00:34.624Z,48.70
2023-01-31T21:03:39.349Z,43.28
2023-01-31T21:06:46.367Z,45.12
2023-01-31T21:09:52.515Z,49.60
2023-01-31T21:12:58.481Z,40.00
2023-01-31T21:16:10.235Z,49.38
2023-01-31T21:19:16.613Z,46.42
2023-01-31T21:22:22.458Z,51.15
2023-01-31T21:25:29.135Z,47.33
2023-01-31T21:28:35.149Z,47.70
2023-01-31T21:31:42.764Z,43.48
2023-01-31T21:34:47.605Z,44.58
2023-01-31T21:37:53.717Z,43.10
2023-01-31T21:41:03.972Z,50.28
2023-01-31T21:44:09.046Z,61.42
2023-01-31T21:47:15.699Z,44.00
2023-01-31T21:50:16.502Z,69.50
2023-01-31T21:53:22.779Z,54.93
2023-01-31T21:56:30.842Z,56.53
2023-01-31T21:59:36.686Z,49.65
2023-01-31T22:02:42.160Z,46.55
2023-01-31T22:05:48.204Z,53.78
2023-01-31T22:08:53.599Z,52.00
2023-01-31T22:12:01.131Z,45.45
2023-01-31T22:15:05.981Z,48.33
2023-01-31T22:18:12.801Z,50.30
2023-01-31T22:21:21.536Z,53.58
2023-01-31T22:24:26.882Z,55.25
2023-01-31T22:27:26.266Z,41.45
2023-01-31T22:30:25.201Z,45.20
2023-01-31T22:33:30.474Z,46.83
2023-01-31T22:36:35.519Z,47.48
2023-01-31T22:39:41.301Z,48.98
2023-01-31T22:42:47.460Z,60.48
2023-01-31T22:45:55.465Z,52.50
2023-01-31T22:49:00.681Z,51.70
2023-01-31T22:51:59.479Z,56.35
2023-01-31T22:54:52.447Z,53.02
2023-01-31T22:57:58.639Z,49.08
2023-01-31T23:01:05.297Z,52.33
2023-01-31T23:04:12.109Z,48.17
2023-01-31T23:07:17.375Z,47.38
2023-01-31T23:10:24.424Z,44.10
2023-01-31T23:13:30.403Z,51.10
2023-01-31T23:16:57.196Z,49.15
2023-01-31T23:20:03.375Z,61.75
2023-01-31T23:23:10.595Z,63.28
2023-01-31T23:26:15.617Z,64.67
2023-01-31T23:29:20.705Z,60.90
2023-01-31T23:32:25.690Z,56.50
2023-01-31T23:35:31.916Z,60.98
2023-01-31T23:38:36.812Z,59.77
2023-01-31T23:41:34.597Z,58.38
2023-01-31T23:44:21.341Z,68.28
2023-01-31T23:47:13.986Z,60.98
2023-01-31T23:50:19.911Z,60.08
2023-01-31T23:53:28.165Z,66.22
2023-01-31T23:56:34.333Z,59.30
2023-01-31T23:59:41.485Z,58.35
